Time;durP1;ratioP1;P1;durP2;ratioP2;P2;SDS_P1;SDS_P2;PMS_P1;PMS_P2;Temp;Humidity;BMP_temperature;BMP_pressure;BME280_temperature;BME280_humidity;BME280_pressure;Samples;Min_cycle;Max_cycle;Signal;HPM_P1;HPM_P2
2023/09/16 00:01:29;;;;;;;5.10;3.63;;;15.70;99.90;;;;;;4143105;28;20250;-79
2023/09/16 00:03:35;;;;;;;6.90;2.90;;;15.60;99.90;;;;;;4145303;28;20239;-79
2023/09/16 00:05:39;;;;;;;4.13;2.83;;;15.60;99.90;;;;;;4145105;28;20228;-79
2023/09/16 00:07:42;;;;;;;4.47;3.27;;;15.60;99.90;;;;;;4144617;28;20591;-79
2023/09/16 00:09:44;;;;;;;4.67;2.90;;;15.60;99.90;;;;;;4143729;28;20284;-79
2023/09/16 00:11:46;;;;;;;5.37;3.03;;;15.50;99.90;;;;;;4144363;28;20214;-79
2023/09/16 00:13:47;;;;;;;4.57;3.20;;;15.50;99.90;;;;;;4145881;28;20207;-79
2023/09/16 00:15:49;;;;;;;4.37;3.03;;;15.50;99.90;;;;;;4146412;28;20232;-79
2023/09/16 00:17:51;;;;;;;5.80;3.27;;;15.50;99.90;;;;;;4138981;28;20231;-79
2023/09/16 00:19:56;;;;;;;9.23;2.97;;;15.50;99.90;;;;;;4142259;28;20218;-79
2023/09/16 00:21:58;;;;;;;5.10;3.10;;;15.40;99.90;;;;;;4147676;28;20211;-79
2023/09/16 00:24:02;;;;;;;9.47;4.00;;;15.40;99.90;;;;;;4141359;28;20707;-79
2023/09/16 00:26:04;;;;;;;10.73;4.53;;;15.40;99.90;;;;;;4144437;28;20242;-79
2023/09/16 00:28:07;;;;;;;8.27;4.00;;;15.40;99.90;;;;;;4146346;28;20208;-79
2023/09/16 00:30:09;;;;;;;6.80;3.87;;;15.30;99.90;;;;;;4144295;28;20638;-78
2023/09/16 00:32:11;;;;;;;7.13;3.73;;;15.30;99.90;;;;;;4142621;28;20195;-79
2023/09/16 00:34:13;;;;;;;5.20;3.23;;;15.30;99.90;;;;;;4142624;28;20214;-79
2023/09/16 00:36:15;;;;;;;4.80;3.07;;;15.30;99.90;;;;;;4146790;28;20204;-79
2023/09/16 00:38:17;;;;;;;4.63;3.17;;;15.30;99.90;;;;;;4142375;28;20200;-79
2023/09/16 00:40:20;;;;;;;5.77;3.60;;;15.20;99.90;;;;;;4144390;28;20272;-78
2023/09/16 00:42:21;;;;;;;4.87;3.30;;;15.20;99.90;;;;;;4144321;28;20587;-79
2023/09/16 00:44:23;;;;;;;5.83;3.50;;;15.20;99.90;;;;;;4144695;28;20318;-79
2023/09/16 00:46:25;;;;;;;6.00;3.37;;;15.10;99.90;;;;;;4145581;28;20736;-79
2023/09/16 00:48:26;;;;;;;5.80;3.93;;;15.10;99.90;;;;;;4143305;28;20489;-79
2023/09/16 00:50:28;;;;;;;4.73;3.47;;;15.10;99.90;;;;;;4141068;28;20226;-79
2023/09/16 00:52:31;;;;;;;7.97;3.60;;;15.10;99.90;;;;;;4141848;28;20674;-77
2023/09/16 00:54:33;;;;;;;5.17;3.50;;;15.10;99.90;;;;;;4144243;28;20237;-79
2023/09/16 00:56:36;;;;;;;4.97;2.90;;;15.10;99.90;;;;;;4147053;28;20223;-79
2023/09/16 00:58:40;;;;;;;5.57;3.43;;;15.10;99.90;;;;;;4145157;28;20694;-79
2023/09/16 01:00:41;;;;;;;4.57;3.40;;;15.00;99.90;;;;;;4143014;28;20676;-79
2023/09/16 01:02:44;;;;;;;6.47;3.33;;;15.00;99.90;;;;;;4144945;28;20206;-79
2023/09/16 01:04:47;;;;;;;6.90;3.27;;;15.00;99.90;;;;;;4140558;28;20263;-79
2023/09/16 01:06:51;;;;;;;4.87;3.13;;;15.00;99.90;;;;;;4145565;28;20218;-79
2023/09/16 01:08:54;;;;;;;5.07;3.37;;;15.00;99.90;;;;;;4141157;28;20580;-78
2023/09/16 01:10:56;;;;;;;6.00;3.67;;;14.90;99.90;;;;;;4143588;28;20678;-79
2023/09/16 01:12:58;;;;;;;5.30;3.37;;;14.90;99.90;;;;;;4142627;28;20350;-79
2023/09/16 01:15:00;;;;;;;5.70;3.80;;;15.00;99.90;;;;;;4142102;28;20220;-79
2023/09/16 01:17:09;;;;;;;6.93;3.80;;;14.90;99.90;;;;;;4144570;28;20291;-79
2023/09/16 01:19:22;;;;;;;5.93;3.67;;;14.90;99.90;;;;;;4145513;28;20211;-79
2023/09/16 01:21:25;;;;;;;5.93;3.70;;;14.90;99.90;;;;;;4141840;28;20659;-78
2023/09/16 01:23:26;;;;;;;5.73;3.57;;;14.90;99.90;;;;;;4142839;28;20215;-78
2023/09/16 01:25:30;;;;;;;5.43;3.57;;;14.90;99.90;;;;;;4141529;28;20523;-79
2023/09/16 01:27:32;;;;;;;6.37;3.50;;;14.90;99.90;;;;;;4157261;28;20223;-79
2023/09/16 01:29:35;;;;;;;4.73;3.47;;;14.80;99.90;;;;;;4139604;28;20768;-79
2023/09/16 01:31:36;;;;;;;6.60;3.77;;;14.80;99.90;;;;;;4145099;28;20211;-78
2023/09/16 01:33:45;;;;;;;5.70;3.70;;;14.80;99.90;;;;;;4138800;28;20231;-79
2023/09/16 01:35:49;;;;;;;5.07;3.47;;;14.80;99.90;;;;;;4157712;28;20273;-79
2023/09/16 01:37:53;;;;;;;4.83;3.60;;;14.70;99.90;;;;;;4139983;28;20274;-79
2023/09/16 01:39:59;;;;;;;5.83;3.60;;;14.70;99.90;;;;;;4143875;28;20558;-78
2023/09/16 01:42:03;;;;;;;5.77;3.80;;;14.70;99.90;;;;;;4139559;28;20559;-79
2023/09/16 01:44:07;;;;;;;6.63;3.67;;;14.60;99.90;;;;;;4139845;28;20231;-78
2023/09/16 01:46:10;;;;;;;5.60;3.80;;;14.60;99.90;;;;;;4140803;28;20203;-79
2023/09/16 01:48:14;;;;;;;6.30;3.83;;;14.60;99.90;;;;;;4144913;28;20270;-79
2023/09/16 01:50:16;;;;;;;6.63;3.90;;;14.60;99.90;;;;;;4142575;28;20214;-78
2023/09/16 01:52:18;;;;;;;6.17;3.90;;;14.60;99.90;;;;;;4143435;28;20254;-78
2023/09/16 01:54:20;;;;;;;5.60;4.00;;;14.60;99.90;;;;;;4142822;28;20212;-79
2023/09/16 01:56:22;;;;;;;6.67;3.90;;;14.60;99.90;;;;;;4145066;28;20220;-79
2023/09/16 01:58:26;;;;;;;6.77;3.73;;;14.60;99.90;;;;;;4142356;28;20209;-79
2023/09/16 02:00:27;;;;;;;6.00;3.87;;;14.50;99.90;;;;;;4140321;28;20232;-78
2023/09/16 02:02:29;;;;;;;5.43;3.70;;;14.50;99.90;;;;;;4143004;28;20213;-79
2023/09/16 02:04:31;;;;;;;5.80;3.87;;;14.50;99.90;;;;;;4142848;28;20231;-78
2023/09/16 02:06:32;;;;;;;7.07;4.37;;;14.50;99.90;;;;;;4146540;28;20196;-78
2023/09/16 02:08:35;;;;;;;6.50;4.33;;;14.40;99.90;;;;;;4144147;28;20211;-78
2023/09/16 02:10:37;;;;;;;5.73;3.83;;;14.40;99.90;;;;;;4145459;28;20747;-77
2023/09/16 02:12:38;;;;;;;6.03;4.00;;;14.40;99.90;;;;;;4141716;28;20259;-77
2023/09/16 02:14:41;;;;;;;5.53;3.93;;;14.40;99.90;;;;;;4148749;28;20271;-78
2023/09/16 02:16:45;;;;;;;5.73;3.93;;;14.40;99.90;;;;;;4146834;28;20213;-77
2023/09/16 02:18:47;;;;;;;7.87;4.47;;;14.40;99.90;;;;;;4148767;28;20256;-78
2023/09/16 02:20:48;;;;;;;6.43;4.43;;;14.40;99.90;;;;;;4149361;28;20724;-77
2023/09/16 02:22:50;;;;;;;6.70;4.60;;;14.30;99.90;;;;;;4154143;28;20236;-77
2023/09/16 02:24:52;;;;;;;6.47;4.43;;;14.30;99.90;;;;;;4152982;28;20238;-77
2023/09/16 02:26:53;;;;;;;5.57;4.03;;;14.30;99.90;;;;;;4169495;28;20243;-78
2023/09/16 02:28:55;;;;;;;7.30;4.40;;;14.30;99.90;;;;;;4155471;28;20203;-77
2023/09/16 02:30:59;;;;;;;6.53;4.70;;;14.30;99.90;;;;;;4153170;28;20214;-77
2023/09/16 02:33:00;;;;;;;6.90;4.80;;;14.30;99.90;;;;;;4154501;28;20200;-77
2023/09/16 02:35:02;;;;;;;12.03;5.10;;;14.30;99.90;;;;;;4143041;28;20225;-77
2023/09/16 02:37:04;;;;;;;5.87;4.20;;;14.30;99.90;;;;;;4138952;28;20209;-77
2023/09/16 02:39:06;;;;;;;6.70;4.80;;;14.20;99.90;;;;;;4139825;28;20211;-77
2023/09/16 02:41:08;;;;;;;6.30;4.37;;;14.20;99.90;;;;;;4162626;28;20236;-78
2023/09/16 02:43:10;;;;;;;7.13;4.57;;;14.20;99.90;;;;;;4146433;28;20257;-77
2023/09/16 02:45:12;;;;;;;8.90;4.60;;;14.20;99.90;;;;;;4148077;28;20258;-77
2023/09/16 02:47:17;;;;;;;7.23;4.83;;;14.20;99.90;;;;;;4145915;28;20230;-77
2023/09/16 02:49:19;;;;;;;6.30;4.50;;;14.20;99.90;;;;;;4141952;28;20228;-78
2023/09/16 02:51:21;;;;;;;7.10;4.53;;;14.20;99.90;;;;;;4143118;28;20218;-77
2023/09/16 02:53:22;;;;;;;6.73;4.30;;;14.10;99.90;;;;;;4140346;28;20217;-77
2023/09/16 02:55:24;;;;;;;8.13;5.00;;;14.10;99.90;;;;;;4139526;28;20237;-77
2023/09/16 02:57:25;;;;;;;6.70;4.57;;;14.10;99.90;;;;;;4141456;28;20210;-77
2023/09/16 02:59:27;;;;;;;6.97;4.87;;;14.10;99.90;;;;;;4144047;28;20674;-77
2023/09/16 03:01:29;;;;;;;7.80;5.00;;;14.10;99.90;;;;;;4148570;28;20239;-77
2023/09/16 03:03:33;;;;;;;9.53;4.87;;;14.10;99.90;;;;;;4151081;28;20244;-77
2023/09/16 03:05:35;;;;;;;8.37;5.13;;;14.10;99.90;;;;;;4150185;28;20323;-78
2023/09/16 03:07:37;;;;;;;8.37;5.03;;;14.10;99.90;;;;;;4149888;28;20636;-77
2023/09/16 03:09:39;;;;;;;7.80;5.33;;;14.10;99.90;;;;;;4147934;28;20204;-77
2023/09/16 03:11:41;;;;;;;7.40;5.20;;;14.00;99.90;;;;;;4145895;28;20210;-77
2023/09/16 03:13:43;;;;;;;6.10;4.83;;;14.00;99.90;;;;;;4141655;28;20572;-77
2023/09/16 03:15:47;;;;;;;8.13;5.47;;;13.90;99.90;;;;;;4141389;28;20221;-77
2023/09/16 03:17:51;;;;;;;6.60;4.73;;;13.90;99.90;;;;;;4140650;28;20212;-77
2023/09/16 03:19:56;;;;;;;7.23;4.90;;;13.90;99.90;;;;;;4137135;28;20237;-77
2023/09/16 03:21:58;;;;;;;8.03;5.53;;;13.90;99.90;;;;;;4142582;28;20261;-78
2023/09/16 03:24:00;;;;;;;7.67;4.77;;;13.90;99.90;;;;;;4142515;28;20799;-78
2023/09/16 03:26:03;;;;;;;6.53;5.00;;;13.90;99.90;;;;;;4138372;28;20662;-78
2023/09/16 03:28:05;;;;;;;6.33;4.80;;;13.90;99.90;;;;;;4137895;28;20625;-77
2023/09/16 03:30:15;;;;;;;7.20;5.10;;;13.90;99.90;;;;;;4139138;28;20212;-78
2023/09/16 03:32:17;;;;;;;6.77;4.77;;;13.90;99.90;;;;;;4140198;28;20205;-78
2023/09/16 03:34:19;;;;;;;8.67;5.90;;;13.90;99.90;;;;;;4148157;28;20333;-78
2023/09/16 03:36:23;;;;;;;7.50;5.00;;;13.90;99.90;;;;;;4141389;28;20221;-78
2023/09/16 03:38:29;;;;;;;8.53;5.47;;;13.90;99.90;;;;;;4139065;28;20201;-78
2023/09/16 03:40:32;;;;;;;11.17;5.30;;;13.80;99.90;;;;;;4141080;28;20724;-77
2023/09/16 03:42:34;;;;;;;7.83;4.70;;;13.80;99.90;;;;;;4139387;28;20206;-78
2023/09/16 03:44:36;;;;;;;6.77;4.90;;;13.80;99.90;;;;;;4139981;28;20244;-78
2023/09/16 03:46:39;;;;;;;9.00;5.87;;;13.80;99.90;;;;;;4140874;28;20202;-78
2023/09/16 03:48:41;;;;;;;8.10;5.00;;;13.80;99.90;;;;;;4138563;28;20209;-78
2023/09/16 03:50:44;;;;;;;7.20;5.33;;;13.80;99.90;;;;;;4138476;28;20559;-78
2023/09/16 03:52:48;;;;;;;7.37;5.43;;;13.80;99.90;;;;;;4136438;28;20216;-78
2023/09/16 03:54:50;;;;;;;7.40;5.03;;;13.70;99.90;;;;;;4137710;28;20238;-78
2023/09/16 03:56:51;;;;;;;7.30;5.10;;;13.70;99.90;;;;;;4140358;28;20212;-78
2023/09/16 03:58:55;;;;;;;7.20;5.10;;;13.70;99.90;;;;;;4139477;28;20663;-77
2023/09/16 04:00:57;;;;;;;8.30;5.40;;;13.70;99.90;;;;;;4140947;28;20767;-78
2023/09/16 04:02:59;;;;;;;7.93;5.63;;;13.70;99.90;;;;;;4139447;28;20232;-78
2023/09/16 04:05:01;;;;;;;7.57;5.53;;;13.80;99.90;;;;;;4137405;28;20256;-78
2023/09/16 04:07:03;;;;;;;7.60;5.20;;;13.70;99.90;;;;;;4140799;28;20204;-77
2023/09/16 04:09:07;;;;;;;8.57;5.43;;;13.70;99.90;;;;;;4143605;28;20223;-78
2023/09/16 04:11:11;;;;;;;7.47;5.17;;;13.60;99.90;;;;;;4140601;28;20229;-77
2023/09/16 04:13:14;;;;;;;7.40;5.30;;;13.50;99.90;;;;;;4138494;28;20575;-78
2023/09/16 04:15:16;;;;;;;8.27;5.43;;;13.70;99.90;;;;;;4141953;28;20235;-78
2023/09/16 04:17:19;;;;;;;8.20;5.30;;;13.60;99.90;;;;;;4147067;28;20379;-78
2023/09/16 04:19:21;;;;;;;10.17;5.97;;;13.60;99.90;;;;;;4146184;28;20212;-78
2023/09/16 04:21:24;;;;;;;9.53;6.73;;;13.60;99.90;;;;;;4140183;28;20224;-77
2023/09/16 04:23:26;;;;;;;7.20;5.70;;;13.60;99.90;;;;;;4142614;28;20219;-77
2023/09/16 04:25:29;;;;;;;7.73;5.53;;;13.60;99.90;;;;;;4139912;28;20292;-77
2023/09/16 04:27:34;;;;;;;7.07;5.07;;;13.60;99.90;;;;;;4141479;28;20214;-77
2023/09/16 04:29:36;;;;;;;10.03;6.07;;;13.60;99.90;;;;;;4142698;28;20308;-77
2023/09/16 04:31:41;;;;;;;8.17;5.60;;;13.60;99.90;;;;;;4144849;28;20207;-77
2023/09/16 04:33:42;;;;;;;8.33;5.37;;;13.60;99.90;;;;;;4137472;28;20609;-77
2023/09/16 04:35:45;;;;;;;7.43;5.47;;;13.60;99.90;;;;;;4139691;28;20227;-77
2023/09/16 04:37:47;;;;;;;8.63;5.73;;;13.60;99.90;;;;;;4138733;28;20221;-77
2023/09/16 04:39:48;;;;;;;8.53;6.27;;;13.60;99.90;;;;;;4139275;28;20750;-76
2023/09/16 04:41:53;;;;;;;8.33;5.77;;;13.60;99.90;;;;;;4141999;28;20259;-76
2023/09/16 04:43:55;;;;;;;8.50;5.90;;;13.60;99.90;;;;;;4141557;28;20216;-76
2023/09/16 04:45:58;;;;;;;9.73;5.97;;;13.60;99.90;;;;;;4139484;28;20235;-77
2023/09/16 04:48:00;;;;;;;8.33;6.03;;;13.50;99.90;;;;;;4139316;28;20209;-77
2023/09/16 04:50:02;;;;;;;8.37;5.73;;;13.50;99.90;;;;;;4140631;28;20275;-76
2023/09/16 04:52:04;;;;;;;7.97;5.80;;;13.50;99.90;;;;;;4141204;28;20666;-76
2023/09/16 04:54:07;;;;;;;9.03;5.87;;;13.50;99.90;;;;;;4140893;28;20206;-76
2023/09/16 04:56:10;;;;;;;9.00;5.93;;;13.50;99.90;;;;;;4141889;28;20203;-77
2023/09/16 04:58:13;;;;;;;7.90;5.83;;;13.50;99.90;;;;;;4140725;28;20636;-76
2023/09/16 05:00:17;;;;;;;9.33;6.20;;;13.50;99.90;;;;;;4142486;28;20543;-77
2023/09/16 05:02:19;;;;;;;10.30;6.60;;;13.50;99.90;;;;;;4140142;28;20217;-77
2023/09/16 05:04:24;;;;;;;8.70;6.50;;;13.50;99.90;;;;;;4141177;28;20262;-77
2023/09/16 05:06:26;;;;;;;12.87;6.57;;;13.50;99.90;;;;;;4141297;28;20220;-78
2023/09/16 05:08:28;;;;;;;10.10;7.67;;;13.50;99.90;;;;;;4154094;28;20761;-77
2023/09/16 05:10:30;;;;;;;10.60;7.50;;;13.50;99.90;;;;;;4138460;28;20206;-77
2023/09/16 05:12:32;;;;;;;12.00;7.20;;;13.60;99.90;;;;;;4143588;28;20646;-77
2023/09/16 05:14:35;;;;;;;10.40;7.33;;;13.60;99.90;;;;;;4139534;28;20634;-77
2023/09/16 05:16:37;;;;;;;12.40;7.57;;;13.60;99.90;;;;;;4138799;28;20245;-77
2023/09/16 05:18:39;;;;;;;9.57;6.63;;;13.60;99.90;;;;;;4138700;28;20219;-77
2023/09/16 05:20:41;;;;;;;12.37;7.83;;;13.60;99.90;;;;;;4139957;28;20206;-78
2023/09/16 05:22:47;;;;;;;10.47;7.53;;;13.60;99.90;;;;;;4142140;28;20217;-78
2023/09/16 05:24:49;;;;;;;10.23;7.17;;;13.60;99.90;;;;;;4140174;28;20796;-76
2023/09/16 05:26:51;;;;;;;10.50;7.07;;;13.60;99.90;;;;;;4137649;28;20214;-76
2023/09/16 05:28:53;;;;;;;11.07;7.73;;;13.60;99.90;;;;;;4139113;28;20237;-76
2023/09/16 05:30:57;;;;;;;10.87;7.33;;;13.60;99.90;;;;;;4140421;28;20216;-76
2023/09/16 05:32:59;;;;;;;9.10;6.93;;;13.60;99.90;;;;;;4137604;28;20228;-76
2023/09/16 05:35:01;;;;;;;10.87;6.97;;;13.60;99.90;;;;;;4141781;28;20224;-76
2023/09/16 05:37:03;;;;;;;10.10;6.83;;;13.60;99.90;;;;;;4139527;28;20740;-76
2023/09/16 05:39:05;;;;;;;11.53;7.07;;;13.60;99.90;;;;;;4135986;28;20209;-76
2023/09/16 05:41:07;;;;;;;11.40;7.50;;;13.60;99.90;;;;;;4141081;28;20212;-76
2023/09/16 05:43:09;;;;;;;10.03;6.93;;;13.60;99.90;;;;;;4141958;28;20206;-76
2023/09/16 05:45:10;;;;;;;11.97;7.57;;;13.70;99.90;;;;;;4143539;28;20703;-76
2023/09/16 05:47:14;;;;;;;13.80;8.90;;;13.60;99.90;;;;;;4139449;28;20219;-76
2023/09/16 05:49:16;;;;;;;12.97;8.43;;;13.60;99.90;;;;;;4138182;28;20219;-76
2023/09/16 05:51:18;;;;;;;12.43;8.20;;;13.60;99.90;;;;;;4138370;28;20558;-77
2023/09/16 05:53:20;;;;;;;17.03;10.03;;;13.70;99.90;;;;;;4140111;28;20231;-76
2023/09/16 05:55:22;;;;;;;16.50;9.53;;;13.70;99.90;;;;;;4139168;28;21105;-76
2023/09/16 05:57:24;;;;;;;14.17;8.60;;;13.70;99.90;;;;;;4139687;28;20206;-76
2023/09/16 05:59:29;;;;;;;17.50;10.10;;;13.70;99.90;;;;;;4137866;28;20217;-76
2023/09/16 06:01:31;;;;;;;13.47;9.10;;;13.70;99.90;;;;;;4139590;28;20263;-76
2023/09/16 06:03:34;;;;;;;13.13;8.50;;;13.70;99.90;;;;;;4139102;28;20208;-76
2023/09/16 06:05:36;;;;;;;12.23;8.73;;;13.70;99.90;;;;;;4137941;28;20238;-77
2023/09/16 06:07:41;;;;;;;12.90;8.80;;;13.70;99.90;;;;;;4140886;28;20259;-77
2023/09/16 06:09:43;;;;;;;16.03;8.10;;;13.70;99.90;;;;;;4138870;28;20218;-76
2023/09/16 06:11:45;;;;;;;11.87;8.17;;;13.70;99.90;;;;;;4145879;28;20214;-77
2023/09/16 06:13:47;;;;;;;18.00;10.73;;;13.70;99.90;;;;;;4141172;28;20219;-77
2023/09/16 06:15:49;;;;;;;15.27;10.70;;;13.80;99.90;;;;;;4140214;28;20215;-77
2023/09/16 06:17:51;;;;;;;16.90;9.63;;;13.80;99.90;;;;;;4137466;28;20206;-77
2023/09/16 06:19:56;;;;;;;13.87;8.53;;;13.80;99.90;;;;;;4138716;28;20322;-77
2023/09/16 06:21:58;;;;;;;11.97;8.20;;;13.80;99.90;;;;;;4141824;28;20211;-77
2023/09/16 06:24:00;;;;;;;12.57;7.87;;;13.90;99.90;;;;;;4136121;28;20598;-77
2023/09/16 06:26:02;;;;;;;12.80;8.10;;;13.90;99.90;;;;;;4137320;28;20265;-77
2023/09/16 06:28:05;;;;;;;11.27;8.10;;;14.00;99.90;;;;;;4140239;28;20249;-77
2023/09/16 06:30:08;;;;;;;11.83;7.97;;;13.90;99.90;;;;;;4141243;28;20213;-76
2023/09/16 06:32:10;;;;;;;11.60;8.23;;;13.90;99.90;;;;;;4139827;28;20225;-77
2023/09/16 06:34:12;;;;;;;13.63;8.03;;;14.00;99.90;;;;;;4136621;28;20228;-77
2023/09/16 06:36:15;;;;;;;12.43;8.37;;;14.00;99.90;;;;;;4138290;28;20616;-77
2023/09/16 06:38:16;;;;;;;14.20;8.63;;;14.10;99.90;;;;;;4138321;28;20217;-77
2023/09/16 06:40:19;;;;;;;11.97;8.10;;;14.10;99.90;;;;;;4138073;28;20214;-76
2023/09/16 06:42:20;;;;;;;11.10;7.90;;;14.10;99.90;;;;;;4139172;28;20215;-77
2023/09/16 06:44:22;;;;;;;13.60;8.10;;;14.10;99.90;;;;;;4140382;28;20296;-76
2023/09/16 06:46:24;;;;;;;12.60;8.53;;;14.10;99.90;;;;;;4138353;28;20224;-77
2023/09/16 06:48:26;;;;;;;13.33;8.57;;;14.20;99.90;;;;;;4140274;28;20204;-77
2023/09/16 06:50:28;;;;;;;12.73;8.10;;;14.20;99.90;;;;;;4157443;28;20267;-77
2023/09/16 06:52:31;;;;;;;13.33;8.53;;;14.20;99.90;;;;;;4138465;28;20593;-77
2023/09/16 06:54:33;;;;;;;15.20;10.20;;;14.30;99.90;;;;;;4140878;28;20220;-77
2023/09/16 06:56:35;;;;;;;14.53;9.50;;;14.30;99.90;;;;;;4137631;28;20218;-76
2023/09/16 06:58:37;;;;;;;14.90;9.77;;;14.40;99.90;;;;;;4137745;28;20215;-77
2023/09/16 07:00:38;;;;;;;12.07;8.30;;;14.40;99.90;;;;;;4137929;28;20206;-76
2023/09/16 07:02:39;;;;;;;12.00;8.30;;;14.60;99.90;;;;;;4140636;28;21127;-77
2023/09/16 07:04:42;;;;;;;10.50;7.70;;;14.60;99.90;;;;;;4140422;28;20226;-77
2023/09/16 07:06:44;;;;;;;10.23;7.60;;;14.60;99.90;;;;;;4137667;28;20304;-77
2023/09/16 07:08:47;;;;;;;10.67;7.23;;;14.60;99.90;;;;;;4138596;28;20214;-76
2023/09/16 07:10:49;;;;;;;13.37;7.80;;;14.50;99.90;;;;;;4139176;28;20212;-77
2023/09/16 07:12:51;;;;;;;9.23;6.90;;;14.80;99.90;;;;;;4137906;28;20216;-76
2023/09/16 07:14:53;;;;;;;11.30;7.40;;;14.80;99.90;;;;;;4138512;28;20657;-76
2023/09/16 07:16:55;;;;;;;9.50;7.07;;;14.80;99.90;;;;;;4138597;28;20204;-76
2023/09/16 07:18:57;;;;;;;10.47;7.50;;;14.80;99.90;;;;;;4141468;28;20205;-77
2023/09/16 07:20:59;;;;;;;19.17;10.60;;;14.90;99.90;;;;;;4137996;28;20579;-77
2023/09/16 07:23:01;;;;;;;14.37;8.83;;;15.00;99.90;;;;;;4140967;28;20207;-77
2023/09/16 07:25:07;;;;;;;12.63;7.30;;;15.00;99.90;;;;;;4138533;28;20243;-76
2023/09/16 07:27:09;;;;;;;10.40;7.10;;;15.10;99.90;;;;;;4141284;28;20223;-77
2023/09/16 07:29:11;;;;;;;10.20;7.27;;;15.10;99.90;;;;;;4137041;28;20219;-76
2023/09/16 07:31:13;;;;;;;10.20;6.87;;;15.20;99.90;;;;;;4135740;28;20204;-76
2023/09/16 07:33:14;;;;;;;11.33;7.23;;;15.20;99.90;;;;;;4137792;28;20691;-77
2023/09/16 07:35:16;;;;;;;10.60;6.97;;;15.30;99.90;;;;;;4137357;28;20228;-77
2023/09/16 07:37:19;;;;;;;11.50;7.60;;;15.30;99.90;;;;;;4139674;28;20900;-77
2023/09/16 07:39:21;;;;;;;13.20;8.10;;;15.40;99.90;;;;;;4139623;28;20576;-77
2023/09/16 07:41:23;;;;;;;11.27;7.27;;;15.40;99.90;;;;;;4140217;28;20946;-77
2023/09/16 07:43:25;;;;;;;12.00;6.97;;;15.50;99.90;;;;;;4136971;28;20667;-77
2023/09/16 07:45:28;;;;;;;10.40;7.03;;;15.50;99.90;;;;;;4143764;28;20247;-77
2023/09/16 07:47:29;;;;;;;10.30;6.80;;;15.50;99.90;;;;;;4139937;28;20208;-77
2023/09/16 07:49:31;;;;;;;9.97;6.77;;;15.60;99.90;;;;;;4143565;28;20278;-77
2023/09/16 07:51:33;;;;;;;9.50;6.93;;;15.60;99.90;;;;;;4141536;28;20557;-76
2023/09/16 07:53:35;;;;;;;10.90;6.70;;;15.70;99.90;;;;;;4140138;28;20208;-77
2023/09/16 07:55:39;;;;;;;8.53;6.30;;;15.70;99.90;;;;;;4143370;28;20284;-75
2023/09/16 07:57:42;;;;;;;8.27;6.33;;;15.70;99.90;;;;;;4141284;28;20211;-76
2023/09/16 07:59:44;;;;;;;7.40;5.93;;;15.80;99.90;;;;;;4143582;28;20712;-76
2023/09/16 08:01:46;;;;;;;11.60;7.10;;;15.80;99.90;;;;;;4148865;28;20220;-77
2023/09/16 08:03:48;;;;;;;9.97;6.50;;;15.90;99.90;;;;;;4144134;28;20714;-76
2023/09/16 08:05:50;;;;;;;9.87;6.60;;;15.90;99.90;;;;;;4143878;28;20269;-77
2023/09/16 08:07:52;;;;;;;9.70;6.40;;;16.00;99.90;;;;;;4147367;28;20219;-77
2023/09/16 08:09:54;;;;;;;10.80;6.60;;;16.10;99.90;;;;;;4148769;28;20223;-77
2023/09/16 08:11:56;;;;;;;8.73;6.70;;;16.10;99.90;;;;;;4152293;28;20210;-77
2023/09/16 08:13:59;;;;;;;10.83;6.70;;;16.20;99.90;;;;;;4142924;28;20726;-77
2023/09/16 08:16:01;;;;;;;9.33;6.00;;;16.20;99.90;;;;;;4143387;28;20319;-77
2023/09/16 08:18:03;;;;;;;9.73;5.57;;;16.30;99.90;;;;;;4139154;28;20305;-77
2023/09/16 08:20:06;;;;;;;10.57;6.63;;;16.30;99.90;;;;;;4137596;28;20209;-77
2023/09/16 08:22:08;;;;;;;9.57;7.00;;;16.40;99.90;;;;;;4144653;28;20214;-77
2023/09/16 08:24:10;;;;;;;13.27;7.37;;;16.40;99.90;;;;;;4140520;28;20214;-77
2023/09/16 08:26:12;;;;;;;13.13;8.03;;;16.50;99.90;;;;;;4140184;28;20241;-77
2023/09/16 08:28:14;;;;;;;11.30;7.57;;;16.60;99.90;;;;;;4143529;28;20206;-77
2023/09/16 08:30:18;;;;;;;12.40;8.23;;;16.60;99.90;;;;;;4142164;28;20238;-77
2023/09/16 08:32:21;;;;;;;11.97;8.17;;;16.70;99.90;;;;;;4145249;28;20264;-77
2023/09/16 08:34:23;;;;;;;10.43;6.77;;;16.80;99.90;;;;;;4137737;28;20243;-77
2023/09/16 08:36:25;;;;;;;9.77;6.77;;;16.80;99.90;;;;;;4140102;28;20237;-77
2023/09/16 08:38:27;;;;;;;11.67;6.97;;;16.90;99.90;;;;;;4139730;28;20201;-77
2023/09/16 08:40:31;;;;;;;8.30;5.80;;;16.90;99.90;;;;;;4142812;28;20218;-77
2023/09/16 08:42:38;;;;;;;9.10;6.33;;;17.00;99.90;;;;;;4140659;28;20561;-77
2023/09/16 08:44:44;;;;;;;8.97;6.50;;;17.00;99.90;;;;;;4143351;28;20229;-77
2023/09/16 08:46:54;;;;;;;9.60;6.27;;;17.20;99.90;;;;;;4140335;28;20229;-77
2023/09/16 08:49:00;;;;;;;8.60;6.23;;;17.20;99.90;;;;;;4140653;28;20577;-77
2023/09/16 08:51:05;;;;;;;8.77;5.93;;;17.30;99.90;;;;;;4141447;28;20203;-77
2023/09/16 08:53:10;;;;;;;7.80;6.00;;;17.30;99.90;;;;;;4136926;28;20772;-77
2023/09/16 08:55:13;;;;;;;9.50;6.13;;;17.40;99.90;;;;;;4142296;28;20262;-77
2023/09/16 08:57:16;;;;;;;7.87;5.93;;;17.50;99.90;;;;;;4141670;28;20246;-77
2023/09/16 08:59:19;;;;;;;8.70;5.97;;;17.50;99.90;;;;;;4142535;28;20823;-77
2023/09/16 09:01:21;;;;;;;6.83;5.43;;;17.60;99.90;;;;;;4138902;28;20223;-78
2023/09/16 09:03:25;;;;;;;7.77;5.77;;;17.60;99.90;;;;;;4140461;28;20296;-76
2023/09/16 09:05:30;;;;;;;10.13;7.03;;;17.70;99.90;;;;;;4142422;28;20232;-76
2023/09/16 09:07:34;;;;;;;9.87;7.10;;;17.80;99.90;;;;;;4138175;28;20234;-76
2023/09/16 09:09:36;;;;;;;10.20;6.53;;;17.80;99.90;;;;;;4139063;28;20269;-77
2023/09/16 09:11:40;;;;;;;10.30;6.63;;;17.90;99.90;;;;;;4141159;28;20781;-76
2023/09/16 09:13:43;;;;;;;12.10;6.50;;;18.00;99.90;;;;;;4137563;28;20218;-76
2023/09/16 09:15:47;;;;;;;9.47;6.03;;;18.00;99.90;;;;;;4140031;28;20235;-76
2023/09/16 09:17:51;;;;;;;7.83;5.60;;;18.10;99.90;;;;;;4140393;28;20204;-76
2023/09/16 09:19:55;;;;;;;7.47;5.50;;;18.10;99.90;;;;;;4139716;28;20211;-77
2023/09/16 09:21:58;;;;;;;7.60;5.67;;;18.20;99.90;;;;;;4138360;28;20261;-77
2023/09/16 09:24:00;;;;;;;6.93;5.40;;;18.30;99.90;;;;;;4132469;28;20670;-77
2023/09/16 09:26:02;;;;;;;6.93;5.80;;;18.40;99.90;;;;;;4139800;28;20732;-77
2023/09/16 09:28:05;;;;;;;7.60;5.70;;;18.40;99.90;;;;;;4154492;28;20214;-77
2023/09/16 09:30:09;;;;;;;7.57;5.67;;;18.50;99.90;;;;;;4138320;28;20710;-76
2023/09/16 09:32:14;;;;;;;6.70;5.00;;;18.60;99.90;;;;;;4141890;28;20718;-77
2023/09/16 09:34:17;;;;;;;7.40;5.30;;;18.70;99.90;;;;;;4140127;28;20220;-77
2023/09/16 09:36:21;;;;;;;7.30;5.53;;;18.70;99.90;;;;;;4137901;28;20652;-77
2023/09/16 09:38:24;;;;;;;5.97;5.17;;;18.80;99.90;;;;;;4138539;28;20216;-77
2023/09/16 09:40:28;;;;;;;8.13;5.80;;;18.90;99.90;;;;;;4143404;28;20236;-77
2023/09/16 09:42:29;;;;;;;7.50;5.10;;;18.90;99.90;;;;;;4141041;28;20208;-77
2023/09/16 09:44:34;;;;;;;8.63;5.10;;;19.00;99.90;;;;;;4141665;28;20297;-77
2023/09/16 09:46:36;;;;;;;7.63;5.50;;;19.10;99.90;;;;;;4145953;28;20240;-77
2023/09/16 09:48:39;;;;;;;7.47;5.53;;;19.20;99.90;;;;;;4148427;28;20208;-77
2023/09/16 09:50:42;;;;;;;7.07;5.80;;;19.30;99.90;;;;;;4149381;28;20212;-77
2023/09/16 09:52:49;;;;;;;6.40;4.90;;;19.40;99.90;;;;;;4148337;28;20215;-77
2023/09/16 09:54:51;;;;;;;10.13;5.37;;;19.50;99.90;;;;;;4146541;28;20274;-77
2023/09/16 09:56:54;;;;;;;7.80;5.27;;;19.50;99.90;;;;;;4145658;28;20211;-77
2023/09/16 09:58:56;;;;;;;7.60;5.20;;;19.60;99.90;;;;;;4140875;28;20209;-77
2023/09/16 10:00:57;;;;;;;6.97;5.00;;;19.70;99.90;;;;;;4142666;28;20220;-77
2023/09/16 10:03:01;;;;;;;7.10;5.43;;;19.80;99.90;;;;;;4138973;28;20277;-77
2023/09/16 10:05:05;;;;;;;7.70;4.70;;;19.90;99.90;;;;;;4138161;28;20220;-77
2023/09/16 10:07:09;;;;;;;7.00;5.23;;;20.00;99.90;;;;;;4139726;28;20233;-77
2023/09/16 10:09:13;;;;;;;6.47;5.13;;;20.10;99.90;;;;;;4135760;28;20211;-77
2023/09/16 10:11:15;;;;;;;7.77;5.70;;;20.20;99.90;;;;;;4137394;28;20208;-78
2023/09/16 10:13:18;;;;;;;7.83;5.53;;;20.30;99.90;;;;;;4143048;28;20207;-78
2023/09/16 10:15:24;;;;;;;8.00;5.33;;;20.30;99.90;;;;;;4141544;28;20232;-78
2023/09/16 10:17:26;;;;;;;6.30;5.03;;;20.50;99.90;;;;;;4146837;28;20630;-78
2023/09/16 10:19:30;;;;;;;6.03;4.90;;;20.60;99.90;;;;;;4143461;28;20216;-78
2023/09/16 10:21:32;;;;;;;7.10;5.20;;;20.70;99.90;;;;;;4143629;28;20219;-77
2023/09/16 10:23:37;;;;;;;7.53;4.80;;;20.70;99.90;;;;;;4139229;28;20218;-77
2023/09/16 10:25:41;;;;;;;7.20;5.37;;;20.80;99.90;;;;;;4139984;28;20298;-77
2023/09/16 10:27:53;;;;;;;7.57;5.43;;;20.90;99.90;;;;;;4140371;28;20232;-78
2023/09/16 10:29:57;;;;;;;7.70;5.00;;;21.00;99.90;;;;;;4138601;28;20221;-77
2023/09/16 10:31:59;;;;;;;5.80;4.70;;;21.10;99.90;;;;;;4140889;28;20244;-77
2023/09/16 10:34:02;;;;;;;6.47;4.57;;;21.20;99.90;;;;;;4138390;28;20216;-77
2023/09/16 10:36:05;;;;;;;6.23;4.60;;;21.30;99.90;;;;;;4138459;28;20209;-77